Time;durP1;ratioP1;P1;durP2;ratioP2;P2;SDS_P1;SDS_P2;PMS_P1;PMS_P2;Temp;Humidity;BMP_temperature;BMP_pressure;BME280_temperature;BME280_humidity;BME280_pressure;Samples;Min_cycle;Max_cycle;Signal;HPM_P1;HPM_P2
2021/01/01 00:01:45;;;;;;;26.42;14.73;;;4.30;99.90;;;;;;4993545;28;20057;-56
2021/01/01 00:04:12;;;;;;;25.58;14.57;;;4.30;99.90;;;;;;4993311;28;20030;-56
2021/01/01 00:06:44;;;;;;;27.00;14.10;;;4.30;99.90;;;;;;4993474;28;20045;-56
2021/01/01 00:09:10;;;;;;;27.88;13.55;;;4.30;99.90;;;;;;4990747;28;20057;-55
2021/01/01 00:11:36;;;;;;;29.08;14.45;;;4.30;99.90;;;;;;4992292;28;20442;-57
2021/01/01 00:14:02;;;;;;;27.10;13.18;;;4.20;99.90;;;;;;4991390;28;20038;-54
2021/01/01 00:16:28;;;;;;;29.15;14.52;;;4.30;99.90;;;;;;4991772;28;20061;-56
2021/01/01 00:18:54;;;;;;;29.08;13.55;;;4.30;99.90;;;;;;4992490;28;20030;-56
2021/01/01 00:21:20;;;;;;;25.00;13.05;;;4.40;99.90;;;;;;4992292;28;20185;-56
2021/01/01 00:23:46;;;;;;;31.80;15.95;;;4.40;99.90;;;;;;4991987;28;20482;-54
2021/01/01 00:26:14;;;;;;;25.75;13.93;;;4.40;99.90;;;;;;4992712;28;20030;-57
2021/01/01 00:28:45;;;;;;;23.90;12.23;;;4.40;99.90;;;;;;4992846;28;20022;-57
2021/01/01 00:31:23;;;;;;;20.02;10.65;;;4.30;99.90;;;;;;4992794;28;20026;-56
2021/01/01 00:33:50;;;;;;;20.35;9.85;;;4.30;99.90;;;;;;4993031;28;20030;-56
2021/01/01 00:36:18;;;;;;;16.30;8.70;;;4.40;99.90;;;;;;4993129;28;20034;-57
2021/01/01 00:38:52;;;;;;;16.92;8.82;;;4.30;99.90;;;;;;4993052;28;20030;-57
2021/01/01 00:41:33;;;;;;;18.85;8.63;;;4.30;99.90;;;;;;4992232;28;20053;-57
2021/01/01 00:44:01;;;;;;;16.60;9.55;;;4.20;99.90;;;;;;4992652;28;20030;-55
2021/01/01 00:46:28;;;;;;;20.30;9.00;;;4.30;99.90;;;;;;4992894;28;20037;-57
2021/01/01 00:48:58;;;;;;;20.05;10.02;;;4.20;99.90;;;;;;4992582;28;20109;-56
2021/01/01 00:51:31;;;;;;;19.55;9.65;;;4.10;99.90;;;;;;4992884;28;20061;-55
2021/01/01 00:53:59;;;;;;;20.33;10.20;;;4.00;99.90;;;;;;4992515;28;20030;-56
2021/01/01 00:56:27;;;;;;;19.98;10.00;;;3.90;99.90;;;;;;4992490;28;20038;-56
2021/01/01 00:58:55;;;;;;;22.55;11.25;;;3.80;99.90;;;;;;4992321;28;20026;-55
2021/01/01 01:01:25;;;;;;;24.20;11.30;;;3.80;99.90;;;;;;4992657;28;20058;-56
2021/01/01 01:03:53;;;;;;;24.65;11.77;;;3.80;99.90;;;;;;4992358;28;20037;-56
2021/01/01 01:06:20;;;;;;;20.60;10.77;;;3.80;99.90;;;;;;4992344;28;20026;-57
2021/01/01 01:08:47;;;;;;;23.17;11.77;;;3.80;99.90;;;;;;4992741;28;20034;-57
2021/01/01 01:11:14;;;;;;;25.33;11.85;;;3.70;99.90;;;;;;4992626;28;20099;-57
2021/01/01 01:13:40;;;;;;;23.80;11.88;;;3.70;99.90;;;;;;4992653;28;20038;-55
2021/01/01 01:16:06;;;;;;;26.60;14.23;;;3.60;99.90;;;;;;4992595;28;20061;-57
2021/01/01 01:18:33;;;;;;;35.25;16.83;;;3.50;99.90;;;;;;4992336;28;20114;-56
2021/01/01 01:20:59;;;;;;;35.95;17.45;;;3.60;99.90;;;;;;4992040;28;20050;-57
2021/01/01 01:23:25;;;;;;;34.28;17.75;;;3.60;99.90;;;;;;4992414;28;20031;-57
2021/01/01 01:25:51;;;;;;;38.58;17.65;;;3.60;99.90;;;;;;4992726;28;20060;-56
2021/01/01 01:28:18;;;;;;;36.90;18.10;;;3.50;99.90;;;;;;4991138;28;20038;-56
2021/01/01 01:30:44;;;;;;;38.65;19.00;;;3.50;99.90;;;;;;4992619;28;20038;-55
2021/01/01 01:33:10;;;;;;;43.42;19.75;;;3.50;99.90;;;;;;4992146;28;20027;-56
2021/01/01 01:35:36;;;;;;;41.22;19.60;;;3.60;99.90;;;;;;4992384;28;20026;-56
2021/01/01 01:38:03;;;;;;;35.97;17.27;;;3.60;99.90;;;;;;4992384;28;20030;-57
2021/01/01 01:40:29;;;;;;;36.10;18.70;;;3.80;99.90;;;;;;4992432;28;20034;-57
2021/01/01 01:42:55;;;;;;;33.45;17.48;;;4.00;99.90;;;;;;4992102;28;20022;-57
2021/01/01 01:45:21;;;;;;;42.13;19.50;;;4.00;99.90;;;;;;4992042;28;20038;-57
2021/01/01 01:47:47;;;;;;;34.72;18.15;;;3.90;99.90;;;;;;4992476;28;20044;-57
2021/01/01 01:50:16;;;;;;;36.08;17.45;;;3.90;99.90;;;;;;4991115;28;20034;-57
2021/01/01 01:52:42;;;;;;;29.05;14.60;;;3.80;99.90;;;;;;4993184;28;20039;-57
2021/01/01 01:55:09;;;;;;;33.75;16.58;;;3.90;99.90;;;;;;4995597;28;20034;-55
2021/01/01 01:57:36;;;;;;;33.95;16.65;;;4.00;99.90;;;;;;4994786;28;20118;-54
2021/01/01 02:00:17;;;;;;;36.20;16.65;;;4.00;99.90;;;;;;4994072;28;20061;-54
2021/01/01 02:02:43;;;;;;;28.95;13.82;;;4.00;99.90;;;;;;4994722;28;20057;-56
2021/01/01 02:05:13;;;;;;;34.38;15.48;;;3.90;99.90;;;;;;4994433;28;20093;-56
2021/01/01 02:07:40;;;;;;;33.10;16.15;;;4.00;99.90;;;;;;4995752;28;20027;-51
2021/01/01 02:10:07;;;;;;;30.55;15.77;;;3.90;99.90;;;;;;4994361;28;20034;-55
2021/01/01 02:12:33;;;;;;;32.38;16.27;;;4.00;99.90;;;;;;4995273;28;20040;-58
2021/01/01 02:14:59;;;;;;;35.08;16.67;;;3.90;99.90;;;;;;4995512;28;20386;-58
2021/01/01 02:17:25;;;;;;;31.63;15.77;;;3.70;99.90;;;;;;4995392;28;20050;-58
2021/01/01 02:20:09;;;;;;;32.80;15.43;;;3.70;99.90;;;;;;4995249;28;20382;-56
2021/01/01 02:22:40;;;;;;;33.85;14.77;;;3.70;99.90;;;;;;4994130;28;20038;-58
2021/01/01 02:25:09;;;;;;;32.60;16.60;;;3.60;99.90;;;;;;4995381;28;20146;-57
2021/01/01 02:27:36;;;;;;;28.45;16.13;;;3.80;99.90;;;;;;4995242;28;20030;-57
2021/01/01 02:30:03;;;;;;;36.60;17.33;;;3.80;99.90;;;;;;4994892;28;20030;-55
2021/01/01 02:32:29;;;;;;;34.08;16.85;;;3.80;99.90;;;;;;4995120;28;20033;-57
2021/01/01 02:34:55;;;;;;;31.90;15.63;;;3.70;99.90;;;;;;4995272;28;20034;-55
2021/01/01 02:37:21;;;;;;;33.97;16.33;;;3.50;99.90;;;;;;4995116;28;20033;-57
2021/01/01 02:39:47;;;;;;;35.38;16.85;;;3.50;99.90;;;;;;4995024;28;20034;-58
2021/01/01 02:42:15;;;;;;;37.20;16.45;;;3.40;99.90;;;;;;4995068;28;20042;-57
2021/01/01 02:44:42;;;;;;;35.90;16.67;;;3.40;99.90;;;;;;4995041;28;20104;-57
2021/01/01 02:47:08;;;;;;;35.67;17.02;;;3.30;99.90;;;;;;4994853;28;20041;-58
2021/01/01 02:49:34;;;;;;;31.83;16.95;;;3.30;99.90;;;;;;4995173;28;20096;-57
2021/01/01 02:52:02;;;;;;;39.50;17.20;;;3.40;99.90;;;;;;4994799;28;20162;-56
2021/01/01 02:54:28;;;;;;;36.35;17.75;;;3.40;99.90;;;;;;4993672;28;20022;-57
2021/01/01 02:56:54;;;;;;;35.08;17.25;;;3.50;99.90;;;;;;4994844;28;20475;-58
2021/01/01 02:59:20;;;;;;;42.05;18.38;;;3.60;99.90;;;;;;4994599;28;20042;-56
2021/01/01 03:01:46;;;;;;;33.22;17.20;;;3.60;99.90;;;;;;4994447;28;20065;-57
2021/01/01 03:04:13;;;;;;;35.40;17.40;;;3.60;99.90;;;;;;4993839;28;20034;-57
2021/01/01 03:06:39;;;;;;;34.75;16.75;;;3.70;99.90;;;;;;4994775;28;20034;-57
2021/01/01 03:09:06;;;;;;;33.90;14.57;;;3.70;99.90;;;;;;4994236;28;20030;-57
2021/01/01 03:11:32;;;;;;;33.42;15.38;;;3.70;99.90;;;;;;4994638;28;20153;-57
2021/01/01 03:13:58;;;;;;;29.48;15.27;;;3.80;99.90;;;;;;4994502;28;20057;-54
2021/01/01 03:16:24;;;;;;;28.02;13.57;;;3.80;99.90;;;;;;4994439;28;20026;-57
2021/01/01 03:18:50;;;;;;;26.73;14.27;;;3.80;99.90;;;;;;4992947;28;20026;-58
2021/01/01 03:21:21;;;;;;;24.35;12.65;;;3.80;99.90;;;;;;4993817;28;20216;-56
2021/01/01 03:23:47;;;;;;;26.35;11.82;;;3.80;99.90;;;;;;4994135;28;20041;-57
2021/01/01 03:26:14;;;;;;;28.70;12.60;;;3.80;99.90;;;;;;4994167;28;20047;-56
2021/01/01 03:28:40;;;;;;;21.92;10.60;;;3.80;99.90;;;;;;4994308;28;20038;-55
2021/01/01 03:31:07;;;;;;;22.05;11.07;;;3.80;99.90;;;;;;4992970;28;20046;-56
2021/01/01 03:33:34;;;;;;;21.42;10.80;;;3.80;99.90;;;;;;4994158;28;20061;-57
2021/01/01 03:36:03;;;;;;;16.25;7.72;;;3.80;99.90;;;;;;4993957;28;20037;-58
2021/01/01 03:38:31;;;;;;;19.25;8.38;;;3.70;99.90;;;;;;4993740;28;20069;-57
2021/01/01 03:40:57;;;;;;;16.95;8.63;;;3.70;99.90;;;;;;4993841;28;20098;-56
2021/01/01 03:43:23;;;;;;;19.52;9.15;;;3.80;99.90;;;;;;4993675;28;20034;-58
2021/01/01 03:45:49;;;;;;;16.23;7.15;;;3.80;99.90;;;;;;4993616;28;20042;-55
2021/01/01 03:48:16;;;;;;;15.77;7.55;;;3.80;99.90;;;;;;4993544;28;20074;-57
2021/01/01 03:50:43;;;;;;;13.20;6.18;;;3.80;99.90;;;;;;4993827;28;20035;-56
2021/01/01 03:53:09;;;;;;;14.02;7.03;;;3.80;99.90;;;;;;4993651;28;20106;-57
2021/01/01 03:55:35;;;;;;;14.63;6.65;;;3.80;99.90;;;;;;4993537;28;20132;-54
2021/01/01 03:58:01;;;;;;;12.95;5.85;;;3.80;99.90;;;;;;4992274;28;20037;-56
2021/01/01 04:00:26;;;;;;;12.38;5.75;;;3.80;99.90;;;;;;4993370;28;20043;-57
2021/01/01 04:02:52;;;;;;;12.85;5.85;;;3.50;99.90;;;;;;4993569;28;20130;-57
2021/01/01 04:05:18;;;;;;;12.15;5.55;;;3.50;99.90;;;;;;4993148;28;20034;-56
2021/01/01 04:07:44;;;;;;;10.73;5.28;;;3.60;99.90;;;;;;4975127;28;20105;-57
2021/01/01 04:10:11;;;;;;;11.20;5.18;;;3.50;99.90;;;;;;4993386;28;20030;-57
2021/01/01 04:12:37;;;;;;;10.73;5.25;;;3.50;99.90;;;;;;4993451;28;20084;-56
2021/01/01 04:15:04;;;;;;;15.18;5.93;;;3.50;99.90;;;;;;4993325;28;20042;-56
2021/01/01 04:17:30;;;;;;;9.27;4.55;;;3.50;99.90;;;;;;4993422;28;20026;-57
2021/01/01 04:19:56;;;;;;;12.55;5.43;;;3.60;99.90;;;;;;4992824;28;20038;-57
2021/01/01 04:22:22;;;;;;;11.00;4.57;;;3.60;99.90;;;;;;4993035;28;20069;-57
2021/01/01 04:24:48;;;;;;;12.52;5.40;;;3.60;99.90;;;;;;4993260;28;20034;-57
2021/01/01 04:27:14;;;;;;;10.32;4.90;;;3.70;99.90;;;;;;4993121;28;20030;-57
2021/01/01 04:29:40;;;;;;;7.97;3.92;;;3.60;99.90;;;;;;4993162;28;20056;-56
2021/01/01 04:32:06;;;;;;;7.63;3.70;;;3.60;99.90;;;;;;4992679;28;20034;-57
2021/01/01 04:34:32;;;;;;;8.68;3.83;;;3.60;99.90;;;;;;4991664;28;20030;-56
2021/01/01 04:36:58;;;;;;;7.18;3.92;;;3.60;99.90;;;;;;4993087;28;20390;-57
2021/01/01 04:39:24;;;;;;;8.93;3.95;;;3.60;99.90;;;;;;4992933;28;20042;-57
2021/01/01 04:41:54;;;;;;;6.68;3.38;;;3.70;99.90;;;;;;4991575;28;20026;-58
2021/01/01 04:44:23;;;;;;;8.57;4.13;;;3.60;99.90;;;;;;4992818;28;20037;-57
2021/01/01 04:46:50;;;;;;;10.23;4.55;;;3.70;99.90;;;;;;4993018;28;20030;-57
2021/01/01 04:49:17;;;;;;;10.57;5.40;;;3.60;99.90;;;;;;4991734;28;20085;-57
2021/01/01 04:51:44;;;;;;;9.50;4.55;;;3.60;99.90;;;;;;4992760;28;20027;-57
2021/01/01 04:54:11;;;;;;;8.57;4.43;;;3.60;99.90;;;;;;4992628;28;20085;-57
2021/01/01 04:56:48;;;;;;;9.57;3.65;;;3.60;99.90;;;;;;4992953;28;20026;-57
2021/01/01 04:59:17;;;;;;;10.80;4.40;;;3.60;99.90;;;;;;4992540;28;20030;-57
2021/01/01 05:01:44;;;;;;;9.65;4.75;;;3.50;99.90;;;;;;4992643;28;20097;-56
2021/01/01 05:04:11;;;;;;;11.95;5.65;;;3.50;99.90;;;;;;4991271;28;20031;-57
2021/01/01 05:06:39;;;;;;;11.02;5.45;;;3.50;99.90;;;;;;4992913;28;20034;-57
2021/01/01 05:09:06;;;;;;;12.88;5.35;;;3.40;99.90;;;;;;4992899;28;20078;-57
2021/01/01 05:11:32;;;;;;;13.48;6.68;;;3.30;99.90;;;;;;4992792;28;20536;-57
2021/01/01 05:14:01;;;;;;;11.82;6.30;;;3.30;99.90;;;;;;4992848;28;20034;-57
2021/01/01 05:16:27;;;;;;;10.05;5.22;;;3.20;99.90;;;;;;4992679;28;20030;-57
2021/01/01 05:18:54;;;;;;;11.93;5.07;;;3.10;99.90;;;;;;4992817;28;20042;-57
2021/01/01 05:21:26;;;;;;;11.18;5.30;;;3.00;99.90;;;;;;4992445;28;20097;-54
2021/01/01 05:23:55;;;;;;;13.45;6.45;;;2.90;99.90;;;;;;4991596;28;20491;-57
2021/01/01 05:26:26;;;;;;;13.32;5.97;;;2.90;99.90;;;;;;4992616;28;20084;-57
2021/01/01 05:28:53;;;;;;;12.07;5.68;;;2.60;99.90;;;;;;4996680;28;20026;-57
2021/01/01 05:31:23;;;;;;;11.60;5.68;;;2.60;99.90;;;;;;4996209;28;20037;-57
2021/01/01 05:34:07;;;;;;;11.80;5.53;;;2.40;99.90;;;;;;4996573;28;20030;-57
2021/01/01 05:36:45;;;;;;;11.23;5.38;;;2.30;99.90;;;;;;4995235;28;20030;-57
2021/01/01 05:39:14;;;;;;;10.05;5.30;;;2.30;99.90;;;;;;4995932;28;20026;-57
2021/01/01 05:41:45;;;;;;;15.27;5.57;;;2.20;99.90;;;;;;4996248;28;20088;-57
2021/01/01 05:44:41;;;;;;;14.70;6.13;;;2.20;99.90;;;;;;4995831;28;20054;-57
2021/01/01 05:47:09;;;;;;;10.73;5.65;;;2.30;99.90;;;;;;4995520;28;20042;-57
2021/01/01 05:49:38;;;;;;;12.82;5.95;;;2.20;99.90;;;;;;4996212;28;20034;-57
2021/01/01 05:52:17;;;;;;;11.70;5.28;;;2.20;99.90;;;;;;4996140;28;20022;-57
2021/01/01 05:54:46;;;;;;;14.05;6.25;;;2.20;99.90;;;;;;4996089;28;20031;-57
2021/01/01 05:57:14;;;;;;;12.57;6.30;;;2.20;99.90;;;;;;4995919;28;20130;-57
2021/01/01 05:59:47;;;;;;;13.10;5.88;;;2.20;99.90;;;;;;4995545;28;20065;-56
2021/01/01 06:02:15;;;;;;;11.93;6.05;;;2.20;99.90;;;;;;4995767;28;20064;-55
2021/01/01 06:04:42;;;;;;;12.90;5.65;;;2.20;99.90;;;;;;4995625;28;20023;-57
2021/01/01 06:07:11;;;;;;;13.68;5.68;;;2.40;99.90;;;;;;4995804;28;20074;-53
2021/01/01 06:09:38;;;;;;;12.23;5.97;;;2.50;99.90;;;;;;4995379;28;20080;-54
2021/01/01 06:12:10;;;;;;;11.55;4.95;;;2.60;99.90;;;;;;4995505;28;20041;-57
2021/01/01 06:14:42;;;;;;;13.00;5.18;;;2.70;99.90;;;;;;4995606;28;20046;-57
2021/01/01 06:17:10;;;;;;;9.55;4.72;;;2.60;99.90;;;;;;4995637;28;20138;-54
2021/01/01 06:19:59;;;;;;;10.55;4.38;;;2.70;99.90;;;;;;4995284;28;20034;-54
2021/01/01 06:22:32;;;;;;;10.23;5.07;;;2.70;99.90;;;;;;4994771;28;20117;-54
2021/01/01 06:25:03;;;;;;;9.88;4.93;;;2.70;99.90;;;;;;4995551;28;20080;-54
2021/01/01 06:27:31;;;;;;;13.13;6.38;;;2.70;99.90;;;;;;4994825;28;20034;-57
2021/01/01 06:30:10;;;;;;;10.85;5.35;;;2.70;99.90;;;;;;4994197;28;20039;-56
2021/01/01 06:32:37;;;;;;;8.68;4.40;;;2.70;99.90;;;;;;4995057;28;20066;-56
2021/01/01 06:35:23;;;;;;;10.45;5.10;;;2.70;99.90;;;;;;4994169;28;20034;-57
2021/01/01 06:37:56;;;;;;;12.52;5.60;;;2.70;99.90;;;;;;4994368;28;20073;-57
2021/01/01 06:40:22;;;;;;;14.63;5.78;;;2.80;99.90;;;;;;4994213;28;20030;-57
2021/01/01 06:43:07;;;;;;;11.57;5.65;;;2.70;99.90;;;;;;4995172;28;20030;-54
2021/01/01 06:45:47;;;;;;;13.90;5.93;;;2.80;99.90;;;;;;4994936;28;20045;-55
2021/01/01 06:48:29;;;;;;;12.85;5.68;;;2.80;99.90;;;;;;4994755;28;20027;-56
2021/01/01 06:50:54;;;;;;;9.30;4.43;;;2.80;99.90;;;;;;4995074;28;20097;-56
2021/01/01 06:53:29;;;;;;;9.38;5.07;;;2.80;99.90;;;;;;4994855;28;20098;-57
2021/01/01 06:56:10;;;;;;;13.40;4.93;;;2.80;99.90;;;;;;4995027;28;20034;-56
2021/01/01 06:58:36;;;;;;;9.17;4.73;;;2.80;99.90;;;;;;4994634;28;20034;-56
2021/01/01 07:01:13;;;;;;;8.77;4.88;;;2.70;99.90;;;;;;4993225;28;20300;-56
2021/01/01 07:03:39;;;;;;;9.18;4.65;;;2.70;99.90;;;;;;4993533;28;20116;-54
2021/01/01 07:06:05;;;;;;;8.07;4.03;;;2.70;99.90;;;;;;4994650;28;20041;-56
2021/01/01 07:08:42;;;;;;;9.32;4.45;;;2.80;99.90;;;;;;4994159;28;20030;-56
2021/01/01 07:11:23;;;;;;;8.82;3.42;;;2.80;99.90;;;;;;4994224;28;20041;-57
2021/01/01 07:13:55;;;;;;;5.82;3.25;;;2.80;99.90;;;;;;4994370;28;20106;-57
2021/01/01 07:16:25;;;;;;;;;;;2.90;99.90;;;;;;4994849;28;20030;-55
2021/01/01 07:18:53;;;;;;;9.00;3.60;;;2.80;99.90;;;;;;4994433;28;19921;-55
2021/01/01 07:21:19;;;;;;;8.13;3.70;;;2.80;99.90;;;;;;4993826;28;20042;-55
2021/01/01 07:23:47;;;;;;;6.90;3.88;;;2.70;99.90;;;;;;4994396;28;20022;-55
2021/01/01 07:26:15;;;;;;;9.15;3.85;;;2.80;99.90;;;;;;4994235;28;20053;-55
2021/01/01 07:28:44;;;;;;;8.30;3.42;;;2.90;99.90;;;;;;4993691;28;20062;-55
2021/01/01 07:31:16;;;;;;;8.70;3.50;;;3.00;99.90;;;;;;4994181;28;20062;-57
2021/01/01 07:33:43;;;;;;;6.47;3.72;;;3.00;99.90;;;;;;4994111;28;20034;-57
2021/01/01 07:36:11;;;;;;;8.93;4.20;;;3.00;99.90;;;;;;4993857;28;20070;-58
2021/01/01 07:38:40;;;;;;;8.05;4.22;;;3.00;99.90;;;;;;4993905;28;20121;-56
2021/01/01 07:41:07;;;;;;;7.18;3.83;;;3.00;99.90;;;;;;4993929;28;20069;-57
2021/01/01 07:43:34;;;;;;;6.82;3.85;;;3.00;99.90;;;;;;4993488;28;20030;-57
2021/01/01 07:46:07;;;;;;;8.57;4.22;;;2.90;99.90;;;;;;4993447;28;20037;-57
2021/01/01 07:48:33;;;;;;;9.60;4.05;;;3.00;99.90;;;;;;4993263;28;20026;-57
2021/01/01 07:51:05;;;;;;;10.10;4.95;;;3.10;99.90;;;;;;4993130;28;20057;-57
2021/01/01 07:53:30;;;;;;;;;;;3.10;99.90;;;;;;4994050;28;20037;-55
2021/01/01 07:56:20;;;;;;;9.00;4.03;;;3.10;99.90;;;;;;4993697;28;19922;-57
2021/01/01 07:58:48;;;;;;;7.28;3.55;;;3.00;99.90;;;;;;4993374;28;20027;-57
2021/01/01 08:01:18;;;;;;;8.18;3.88;;;3.00;99.90;;;;;;4993195;28;20026;-56
2021/01/01 08:03:45;;;;;;;7.65;4.18;;;3.00;99.90;;;;;;4993146;28;20037;-56
2021/01/01 08:06:11;;;;;;;8.13;4.70;;;3.00;99.90;;;;;;4992358;28;20046;-57
2021/01/01 08:08:37;;;;;;;8.70;4.43;;;3.10;99.90;;;;;;4993328;28;20121;-56
2021/01/01 08:11:06;;;;;;;9.00;4.35;;;3.20;99.90;;;;;;4991935;28;20041;-57
2021/01/01 08:13:34;;;;;;;7.53;3.75;;;3.10;99.90;;;;;;4992868;28;20030;-56
2021/01/01 08:16:15;;;;;;;7.40;4.13;;;3.10;99.90;;;;;;4993304;28;20030;-55
2021/01/01 08:18:42;;;;;;;5.32;3.35;;;3.10;99.90;;;;;;4993195;28;20114;-56
2021/01/01 08:21:08;;;;;;;8.57;4.43;;;3.30;99.90;;;;;;4992784;28;20046;-54
2021/01/01 08:23:59;;;;;;;8.40;3.85;;;3.30;99.90;;;;;;4992914;28;20034;-55
2021/01/01 08:26:27;;;;;;;8.73;4.15;;;3.40;99.90;;;;;;4991519;28;20073;-54
2021/01/01 08:28:55;;;;;;;6.28;3.55;;;3.30;99.90;;;;;;4991555;28;20038;-55
2021/01/01 08:31:21;;;;;;;8.10;4.20;;;3.30;99.90;;;;;;4991713;28;20117;-55
2021/01/01 08:33:52;;;;;;;9.45;4.57;;;3.30;99.90;;;;;;4992749;28;20042;-56
2021/01/01 08:36:18;;;;;;;7.03;4.28;;;3.50;99.90;;;;;;4991548;28;20084;-56
2021/01/01 08:38:44;;;;;;;48.90;23.20;;;3.20;99.90;;;;;;4992569;28;20034;-57
2021/01/01 08:41:18;;;;;;;15.20;7.78;;;3.40;99.90;;;;;;4992600;28;20034;-56
2021/01/01 08:43:45;;;;;;;10.52;5.30;;;3.20;99.90;;;;;;4966004;28;20056;-56
2021/01/01 08:46:21;;;;;;;8.85;4.65;;;3.40;99.90;;;;;;4999502;28;20069;-54
2021/01/01 08:48:47;;;;;;;8.60;4.78;;;3.30;99.90;;;;;;4991131;28;20081;-53
2021/01/01 08:51:13;;;;;;;10.20;5.25;;;3.20;99.90;;;;;;4991983;28;20072;-54
2021/01/01 08:53:40;;;;;;;8.02;4.32;;;3.30;99.90;;;;;;4990227;28;20034;-57
2021/01/01 08:56:08;;;;;;;9.43;4.78;;;3.50;99.90;;;;;;4988408;28;20061;-56
2021/01/01 08:58:34;;;;;;;10.25;5.43;;;3.60;99.90;;;;;;4991750;28;20026;-57
2021/01/01 09:01:17;;;;;;;9.30;5.25;;;3.60;99.90;;;;;;4991702;28;20026;-58
2021/01/01 09:03:44;;;;;;;8.95;5.00;;;3.70;99.90;;;;;;4996034;28;20045;-58
2021/01/01 09:06:18;;;;;;;12.48;5.95;;;3.60;99.90;;;;;;4994781;28;20018;-58
2021/01/01 09:08:44;;;;;;;12.93;5.75;;;3.70;99.90;;;;;;4995889;28;20069;-57
2021/01/01 09:11:21;;;;;;;15.30;8.07;;;3.70;99.90;;;;;;4996044;28;20022;-59
2021/01/01 09:13:59;;;;;;;13.27;6.80;;;3.70;99.90;;;;;;4996192;28;20125;-59
2021/01/01 09:16:25;;;;;;;12.77;6.97;;;3.80;99.90;;;;;;4996281;28;20085;-58
2021/01/01 09:18:51;;;;;;;13.50;6.63;;;3.80;99.90;;;;;;4995063;28;20030;-56
2021/01/01 09:21:18;;;;;;;13.15;6.72;;;3.80;99.90;;;;;;4996090;28;20053;-59
2021/01/01 09:23:53;;;;;;;11.68;5.97;;;3.70;99.90;;;;;;4996283;28;20092;-58
2021/01/01 09:26:32;;;;;;;10.68;5.65;;;3.80;99.90;;;;;;4996204;28;20031;-58
2021/01/01 09:29:09;;;;;;;9.57;5.95;;;3.80;99.90;;;;;;4996158;28;20026;-58
2021/01/01 09:31:37;;;;;;;10.60;5.32;;;3.70;99.90;;;;;;4996138;28;20037;-58
2021/01/01 09:34:06;;;;;;;11.48;5.38;;;3.60;99.90;;;;;;4996325;28;20034;-55
2021/01/01 09:36:34;;;;;;;9.07;5.38;;;3.70;99.90;;;;;;4996093;28;20046;-57
2021/01/01 09:39:01;;;;;;;10.30;5.85;;;3.70;99.90;;;;;;4995521;28;20044;-58
2021/01/01 09:41:28;;;;;;;12.82;5.47;;;3.60;99.90;;;;;;4994853;28;20094;-65
2021/01/01 09:43:54;;;;;;;10.73;5.88;;;3.60;99.90;;;;;;4995621;28;20036;-57
2021/01/01 09:46:20;;;;;;;11.18;6.07;;;3.70;99.90;;;;;;4995766;28;20055;-56
2021/01/01 09:48:46;;;;;;;11.15;6.20;;;3.50;99.90;;;;;;4995931;28;20084;-54
2021/01/01 09:51:14;;;;;;;9.88;5.72;;;3.40;99.90;;;;;;4995992;28;20494;-56
2021/01/01 09:53:41;;;;;;;11.25;5.80;;;3.40;99.90;;;;;;4995879;28;20031;-55
2021/01/01 09:56:06;;;;;;;11.07;6.32;;;3.40;99.90;;;;;;4995965;28;20033;-57
2021/01/01 09:58:32;;;;;;;10.98;5.72;;;3.50;99.90;;;;;;4995322;28;20038;-54
2021/01/01 10:00:59;;;;;;;9.65;5.38;;;3.60;99.90;;;;;;4994565;28;20044;-54
2021/01/01 10:03:25;;;;;;;13.73;6.95;;;3.40;99.90;;;;;;4995889;28;20030;-52
2021/01/01 10:05:51;;;;;;;10.20;5.80;;;3.30;99.90;;;;;;4996007;28;20033;-53
2021/01/01 10:08:17;;;;;;;14.63;5.78;;;3.20;99.90;;;;;;4995182;28;20038;-51
2021/01/01 10:10:47;;;;;;;11.50;6.65;;;3.20;99.90;;;;;;4995498;28;20038;-55
2021/01/01 10:13:13;;;;;;;11.02;6.03;;;3.10;99.90;;;;;;4995348;28;20042;-56
2021/01/01 10:15:40;;;;;;;15.30;7.03;;;3.10;99.90;;;;;;4993938;28;20027;-56
2021/01/01 10:18:06;;;;;;;14.63;7.45;;;3.10;99.90;;;;;;4995282;28;20066;-54
2021/01/01 10:20:32;;;;;;;13.60;7.28;;;3.10;99.90;;;;;;4994835;28;20058;-55
2021/01/01 10:22:58;;;;;;;15.80;6.70;;;3.10;99.90;;;;;;4993862;28;20034;-56
2021/01/01 10:25:25;;;;;;;13.40;6.97;;;3.20;99.90;;;;;;4995067;28;20080;-55
2021/01/01 10:27:51;;;;;;;13.00;6.38;;;3.30;99.90;;;;;;4995001;28;20134;-51
2021/01/01 10:30:17;;;;;;;10.90;6.22;;;3.40;99.90;;;;;;4994932;28;20054;-55
2021/01/01 10:32:43;;;;;;;13.02;6.55;;;3.60;99.90;;;;;;4993652;28;20035;-54
2021/01/01 10:35:09;;;;;;;13.63;7.38;;;3.70;99.90;;;;;;4994377;28;20088;-53
2021/01/01 10:37:35;;;;;;;11.05;6.35;;;3.70;99.90;;;;;;4994576;28;20038;-56
2021/01/01 10:40:04;;;;;;;13.38;6.05;;;3.90;99.90;;;;;;4994682;28;20061;-57
2021/01/01 10:42:30;;;;;;;10.23;5.88;;;3.80;99.90;;;;;;4994731;28;20053;-55
2021/01/01 10:44:56;;;;;;;12.65;6.75;;;3.70;99.90;;;;;;4994534;28;20026;-52
2021/01/01 10:47:22;;;;;;;13.77;6.55;;;3.60;99.90;;;;;;4993327;28;20030;-56
2021/01/01 10:49:48;;;;;;;15.93;7.03;;;3.60;99.90;;;;;;4994333;28;20035;-56
2021/01/01 10:52:14;;;;;;;12.98;7.03;;;3.70;99.90;;;;;;4994859;28;20026;-55
2021/01/01 10:54:40;;;;;;;11.15;6.10;;;4.00;99.90;;;;;;4994480;28;20038;-54
2021/01/01 10:57:06;;;;;;;11.80;6.65;;;4.20;99.90;;;;;;4994715;28;20438;-53
2021/01/01 10:59:32;;;;;;;10.45;5.60;;;4.30;99.90;;;;;;4994130;28;20042;-56
2021/01/01 11:02:01;;;;;;;11.15;6.32;;;4.30;99.90;;;;;;4994584;28;20056;-52
2021/01/01 11:04:27;;;;;;;11.55;5.70;;;4.40;99.90;;;;;;4994381;28;20034;-57
2021/01/01 11:06:54;;;;;;;8.98;5.40;;;4.40;99.90;;;;;;4994502;28;20041;-53
2021/01/01 11:09:20;;;;;;;11.77;6.47;;;4.30;99.90;;;;;;4994012;28;20026;-57
2021/01/01 11:11:48;;;;;;;11.20;6.20;;;4.10;99.90;;;;;;4994210;28;20038;-57
2021/01/01 12:23:02;;;;;;;16.20;7.60;;;3.90;99.90;;;;;;4992945;28;20026;-52
2021/01/01 12:25:28;;;;;;;15.38;8.07;;;3.90;99.90;;;;;;4976848;28;20034;-55
2021/01/01 12:28:01;;;;;;;18.25;8.65;;;3.90;99.90;;;;;;4991489;28;20026;-56
2021/01/01 12:30:30;;;;;;;18.13;8.70;;;3.90;99.90;;;;;;4992703;28;20046;-55
2021/01/01 12:32:56;;;;;;;14.98;7.45;;;3.90;99.90;;;;;;4991179;28;20034;-53
2021/01/01 12:35:22;;;;;;;24.65;13.35;;;3.90;99.90;;;;;;4992576;28;20030;-53
2021/01/01 12:38:03;;;;;;;16.77;8.60;;;3.90;99.90;;;;;;4992888;28;20030;-52
2021/01/01 12:40:30;;;;;;;16.48;8.52;;;3.90;99.90;;;;;;4992809;28;20034;-54
2021/01/01 12:43:01;;;;;;;16.08;8.07;;;4.00;99.90;;;;;;4992573;28;20038;-55
2021/01/01 12:45:27;;;;;;;19.30;8.07;;;4.00;99.90;;;;;;4992496;28;20045;-53
2021/01/01 12:47:53;;;;;;;15.38;7.93;;;4.00;99.90;;;;;;4992691;28;20065;-53
2021/01/01 12:50:20;;;;;;;17.52;8.30;;;3.90;99.90;;;;;;4991621;28;20033;-52
2021/01/01 12:52:57;;;;;;;17.60;8.25;;;3.90;99.90;;;;;;4992759;28;20033;-54
2021/01/01 12:55:25;;;;;;;17.15;8.30;;;3.90;99.90;;;;;;4992770;28;20030;-48
2021/01/01 12:57:51;;;;;;;17.02;8.55;;;3.90;99.90;;;;;;4992294;28;20114;-49
2021/01/01 13:00:18;;;;;;;15.57;8.23;;;3.90;99.90;;;;;;4992669;28;20030;-53
2021/01/01 13:02:44;;;;;;;16.67;8.85;;;3.90;99.90;;;;;;4990966;28;20022;-51
2021/01/01 13:05:11;;;;;;;16.42;7.97;;;3.90;99.90;;;;;;4992385;28;20116;-54
2021/01/01 13:07:38;;;;;;;17.23;8.68;;;3.90;99.90;;;;;;4992763;28;20027;-55
2021/01/01 13:10:08;;;;;;;14.70;7.38;;;4.00;99.90;;;;;;4992340;28;20053;-56
2021/01/01 13:12:34;;;;;;;15.05;7.88;;;4.10;99.90;;;;;;4992347;28;20030;-53
2021/01/01 13:15:00;;;;;;;15.00;8.27;;;4.00;99.90;;;;;;4992418;28;20038;-53
2021/01/01 13:17:26;;;;;;;16.33;8.52;;;4.00;99.90;;;;;;4992488;28;20038;-56
2021/01/01 13:19:53;;;;;;;17.50;8.98;;;3.90;99.90;;;;;;4990541;28;20165;-53
2021/01/01 13:22:19;;;;;;;18.25;8.95;;;3.90;99.90;;;;;;4992272;28;20081;-55
2021/01/01 13:24:45;;;;;;;17.38;8.63;;;3.90;99.90;;;;;;4992311;28;20026;-55
2021/01/01 13:27:11;;;;;;;16.73;8.00;;;3.90;99.90;;;;;;4992125;28;20030;-55
2021/01/01 13:29:37;;;;;;;16.20;8.10;;;3.90;99.90;;;;;;4992551;28;20046;-55
2021/01/01 13:32:03;;;;;;;16.17;8.63;;;3.90;99.90;;;;;;4992268;28;20130;-54
2021/01/01 13:34:29;;;;;;;16.80;8.98;;;3.90;99.90;;;;;;4992395;28;20042;-57
2021/01/01 13:36:55;;;;;;;18.10;8.32;;;3.90;99.90;;;;;;4991237;28;20037;-57
2021/01/01 13:39:21;;;;;;;15.05;7.70;;;4.00;99.90;;;;;;4991487;28;20069;-58
2021/01/01 13:41:47;;;;;;;15.93;8.10;;;4.00;99.90;;;;;;4990727;28;20034;-57
2021/01/01 13:44:13;;;;;;;13.30;6.82;;;4.00;99.90;;;;;;4991551;28;20324;-59
2021/01/01 13:46:39;;;;;;;10.68;6.53;;;4.10;99.90;;;;;;4991815;28;20506;-56
2021/01/01 13:49:07;;;;;;;14.05;7.35;;;4.10;99.90;;;;;;4994906;28;20030;-57
2021/01/01 13:51:37;;;;;;;13.25;6.78;;;4.20;99.90;;;;;;4995488;28;20031;-57
2021/01/01 13:54:05;;;;;;;12.45;6.70;;;4.30;99.90;;;;;;4995768;28;20117;-56
2021/01/01 13:56:31;;;;;;;12.77;7.13;;;4.40;99.90;;;;;;4995617;28;20085;-57
2021/01/01 13:58:57;;;;;;;12.15;6.60;;;4.50;99.90;;;;;;4995468;28;20030;-58
2021/01/01 14:01:24;;;;;;;10.77;6.07;;;4.50;99.90;;;;;;4995329;28;20142;-58
2021/01/01 14:03:52;;;;;;;17.38;9.10;;;4.60;99.90;;;;;;4995113;28;20038;-57